sensor_id;sensor_type;location;lat;lon;timestamp;P1;durP1;ratioP1;P2;durP2;ratioP2
10667;SDS011;5382;42.136;24.796;2022-09-09T00:01:43;8.07;;;7.00;;
10667;SDS011;5382;42.136;24.796;2022-09-09T00:04:20;9.90;;;6.80;;
10667;SDS011;5382;42.136;24.796;2022-09-09T00:06:55;7.97;;;6.82;;
10667;SDS011;5382;42.136;24.796;2022-09-09T00:09:29;9.38;;;7.68;;
10667;SDS011;5382;42.136;24.796;2022-09-09T00:12:04;11.40;;;7.28;;
10667;SDS011;5382;42.136;24.796;2022-09-09T00:14:39;8.05;;;7.30;;
10667;SDS011;5382;42.136;24.796;2022-09-09T00:17:14;9.15;;;6.68;;
10667;SDS011;5382;42.136;24.796;2022-09-09T00:19:49;8.57;;;7.40;;
10667;SDS011;5382;42.136;24.796;2022-09-09T00:22:23;9.45;;;7.75;;
10667;SDS011;5382;42.136;24.796;2022-09-09T00:24:54;10.02;;;7.35;;
10667;SDS011;5382;42.136;24.796;2022-09-09T00:27:25;10.95;;;7.63;;
10667;SDS011;5382;42.136;24.796;2022-09-09T00:29:58;9.77;;;7.95;;
10667;SDS011;5382;42.136;24.796;2022-09-09T00:32:29;8.85;;;7.05;;
10667;SDS011;5382;42.136;24.796;2022-09-09T00:35:02;7.05;;;6.45;;
10667;SDS011;5382;42.136;24.796;2022-09-09T00:37:31;11.23;;;7.50;;
10667;SDS011;5382;42.136;24.796;2022-09-09T00:40:01;10.13;;;8.32;;
10667;SDS011;5382;42.136;24.796;2022-09-09T00:42:40;10.38;;;7.28;;
10667;SDS011;5382;42.136;24.796;2022-09-09T00:45:16;8.77;;;7.15;;
10667;SDS011;5382;42.136;24.796;2022-09-09T00:47:58;8.70;;;7.47;;
10667;SDS011;5382;42.136;24.796;2022-09-09T00:50:38;8.43;;;7.40;;
10667;SDS011;5382;42.136;24.796;2022-09-09T00:53:24;8.18;;;7.28;;
10667;SDS011;5382;42.136;24.796;2022-09-09T00:56:01;11.00;;;7.32;;
10667;SDS011;5382;42.136;24.796;2022-09-09T00:58:36;10.20;;;7.80;;
10667;SDS011;5382;42.136;24.796;2022-09-09T01:01:05;9.13;;;7.93;;
10667;SDS011;5382;42.136;24.796;2022-09-09T01:03:37;8.40;;;7.60;;
10667;SDS011;5382;42.136;24.796;2022-09-09T01:06:15;8.60;;;7.80;;
10667;SDS011;5382;42.136;24.796;2022-09-09T01:08:59;12.23;;;7.57;;
10667;SDS011;5382;42.136;24.796;2022-09-09T01:11:33;8.38;;;7.25;;
10667;SDS011;5382;42.136;24.796;2022-09-09T01:14:14;11.90;;;8.05;;
10667;SDS011;5382;42.136;24.796;2022-09-09T01:16:52;10.38;;;7.00;;
10667;SDS011;5382;42.136;24.796;2022-09-09T01:19:27;9.57;;;6.63;;
10667;SDS011;5382;42.136;24.796;2022-09-09T01:22:13;8.63;;;7.00;;
10667;SDS011;5382;42.136;24.796;2022-09-09T01:24:51;9.63;;;8.00;;
10667;SDS011;5382;42.136;24.796;2022-09-09T01:27:46;10.70;;;7.85;;
10667;SDS011;5382;42.136;24.796;2022-09-09T01:30:17;9.75;;;7.78;;
10667;SDS011;5382;42.136;24.796;2022-09-09T01:32:46;10.15;;;7.88;;
10667;SDS011;5382;42.136;24.796;2022-09-09T01:35:15;10.25;;;7.60;;
10667;SDS011;5382;42.136;24.796;2022-09-09T01:37:54;12.43;;;8.25;;
10667;SDS011;5382;42.136;24.796;2022-09-09T01:40:21;9.25;;;8.38;;
10667;SDS011;5382;42.136;24.796;2022-09-09T01:42:49;15.02;;;7.90;;
10667;SDS011;5382;42.136;24.796;2022-09-09T01:45:17;8.35;;;7.47;;
10667;SDS011;5382;42.136;24.796;2022-09-09T01:47:44;12.82;;;7.18;;
10667;SDS011;5382;42.136;24.796;2022-09-09T01:50:12;11.18;;;8.35;;
10667;SDS011;5382;42.136;24.796;2022-09-09T01:52:42;8.63;;;7.75;;
10667;SDS011;5382;42.136;24.796;2022-09-09T01:55:11;10.85;;;8.23;;
10667;SDS011;5382;42.136;24.796;2022-09-09T01:57:39;9.30;;;8.40;;
10667;SDS011;5382;42.136;24.796;2022-09-09T02:00:17;8.98;;;8.13;;
10667;SDS011;5382;42.136;24.796;2022-09-09T02:02:47;8.75;;;7.75;;
10667;SDS011;5382;42.136;24.796;2022-09-09T02:05:26;10.07;;;9.07;;
10667;SDS011;5382;42.136;24.796;2022-09-09T02:08:03;10.18;;;8.77;;
10667;SDS011;5382;42.136;24.796;2022-09-09T02:10:36;9.77;;;8.68;;
10667;SDS011;5382;42.136;24.796;2022-09-09T02:13:08;11.43;;;8.38;;
10667;SDS011;5382;42.136;24.796;2022-09-09T02:15:41;8.77;;;7.35;;
10667;SDS011;5382;42.136;24.796;2022-09-09T02:18:14;12.18;;;8.13;;
10667;SDS011;5382;42.136;24.796;2022-09-09T02:20:45;10.30;;;8.02;;
10667;SDS011;5382;42.136;24.796;2022-09-09T02:23:13;10.52;;;9.40;;
10667;SDS011;5382;42.136;24.796;2022-09-09T02:25:42;10.75;;;9.65;;
10667;SDS011;5382;42.136;24.796;2022-09-09T02:28:11;9.98;;;7.85;;
10667;SDS011;5382;42.136;24.796;2022-09-09T02:30:42;13.95;;;8.48;;
10667;SDS011;5382;42.136;24.796;2022-09-09T02:33:13;13.45;;;8.60;;
10667;SDS011;5382;42.136;24.796;2022-09-09T02:35:41;11.63;;;10.02;;
10667;SDS011;5382;42.136;24.796;2022-09-09T02:38:11;11.43;;;8.07;;
10667;SDS011;5382;42.136;24.796;2022-09-09T02:40:41;11.43;;;8.82;;
10667;SDS011;5382;42.136;24.796;2022-09-09T02:43:08;12.43;;;9.63;;
10667;SDS011;5382;42.136;24.796;2022-09-09T02:45:39;12.15;;;9.65;;
10667;SDS011;5382;42.136;24.796;2022-09-09T02:48:16;11.82;;;10.63;;
10667;SDS011;5382;42.136;24.796;2022-09-09T02:50:49;14.52;;;11.48;;
10667;SDS011;5382;42.136;24.796;2022-09-09T02:53:22;13.95;;;12.55;;
10667;SDS011;5382;42.136;24.796;2022-09-09T02:55:56;12.82;;;11.10;;
10667;SDS011;5382;42.136;24.796;2022-09-09T02:58:30;16.83;;;11.70;;
10667;SDS011;5382;42.136;24.796;2022-09-09T03:00:59;15.93;;;11.38;;
10667;SDS011;5382;42.136;24.796;2022-09-09T03:03:28;12.73;;;11.52;;
10667;SDS011;5382;42.136;24.796;2022-09-09T03:05:55;14.65;;;11.60;;
10667;SDS011;5382;42.136;24.796;2022-09-09T03:08:22;13.75;;;11.68;;
10667;SDS011;5382;42.136;24.796;2022-09-09T03:10:49;12.95;;;10.85;;
10667;SDS011;5382;42.136;24.796;2022-09-09T03:13:19;12.80;;;11.30;;
10667;SDS011;5382;42.136;24.796;2022-09-09T03:15:47;13.18;;;11.50;;
10667;SDS011;5382;42.136;24.796;2022-09-09T03:18:15;15.48;;;10.85;;
10667;SDS011;5382;42.136;24.796;2022-09-09T03:20:42;15.85;;;11.52;;
10667;SDS011;5382;42.136;24.796;2022-09-09T03:23:09;12.90;;;11.40;;
10667;SDS011;5382;42.136;24.796;2022-09-09T03:25:38;14.18;;;10.32;;
10667;SDS011;5382;42.136;24.796;2022-09-09T03:28:05;13.15;;;9.98;;
10667;SDS011;5382;42.136;24.796;2022-09-09T03:30:32;13.77;;;9.73;;
10667;SDS011;5382;42.136;24.796;2022-09-09T03:32:59;12.80;;;9.90;;
10667;SDS011;5382;42.136;24.796;2022-09-09T03:35:27;16.00;;;10.55;;
10667;SDS011;5382;42.136;24.796;2022-09-09T03:37:54;11.13;;;9.98;;
10667;SDS011;5382;42.136;24.796;2022-09-09T03:40:21;15.50;;;10.23;;
10667;SDS011;5382;42.136;24.796;2022-09-09T03:42:48;23.25;;;14.32;;
10667;SDS011;5382;42.136;24.796;2022-09-09T03:45:15;20.95;;;12.85;;
10667;SDS011;5382;42.136;24.796;2022-09-09T03:47:42;15.05;;;9.90;;
10667;SDS011;5382;42.136;24.796;2022-09-09T03:50:09;10.23;;;8.52;;
10667;SDS011;5382;42.136;24.796;2022-09-09T03:52:38;13.60;;;8.80;;
10667;SDS011;5382;42.136;24.796;2022-09-09T03:55:06;9.52;;;8.43;;
10667;SDS011;5382;42.136;24.796;2022-09-09T03:57:34;8.43;;;7.63;;
10667;SDS011;5382;42.136;24.796;2022-09-09T04:00:02;10.95;;;8.73;;
10667;SDS011;5382;42.136;24.796;2022-09-09T04:02:30;14.52;;;9.35;;
10667;SDS011;5382;42.136;24.796;2022-09-09T04:04:57;13.52;;;8.90;;
10667;SDS011;5382;42.136;24.796;2022-09-09T04:07:24;12.55;;;9.07;;
10667;SDS011;5382;42.136;24.796;2022-09-09T04:09:53;13.20;;;7.75;;
10667;SDS011;5382;42.136;24.796;2022-09-09T04:12:20;8.30;;;6.75;;
10667;SDS011;5382;42.136;24.796;2022-09-09T04:14:47;11.35;;;7.20;;
10667;SDS011;5382;42.136;24.796;2022-09-09T04:17:14;11.35;;;7.88;;
10667;SDS011;5382;42.136;24.796;2022-09-09T04:19:41;10.68;;;7.57;;
10667;SDS011;5382;42.136;24.796;2022-09-09T04:22:08;10.88;;;7.13;;
10667;SDS011;5382;42.136;24.796;2022-09-09T04:24:35;11.05;;;7.22;;
10667;SDS011;5382;42.136;24.796;2022-09-09T04:27:03;9.40;;;6.70;;
10667;SDS011;5382;42.136;24.796;2022-09-09T04:29:30;8.63;;;6.35;;
10667;SDS011;5382;42.136;24.796;2022-09-09T04:31:58;7.10;;;6.40;;
10667;SDS011;5382;42.136;24.796;2022-09-09T04:34:25;22.40;;;8.25;;
10667;SDS011;5382;42.136;24.796;2022-09-09T04:36:52;12.57;;;6.80;;
10667;SDS011;5382;42.136;24.796;2022-09-09T04:39:20;10.63;;;6.43;;
10667;SDS011;5382;42.136;24.796;2022-09-09T04:41:47;9.73;;;5.25;;
10667;SDS011;5382;42.136;24.796;2022-09-09T04:44:16;15.25;;;6.22;;
10667;SDS011;5382;42.136;24.796;2022-09-09T04:46:43;14.32;;;5.45;;
10667;SDS011;5382;42.136;24.796;2022-09-09T04:49:10;10.15;;;5.43;;
10667;SDS011;5382;42.136;24.796;2022-09-09T04:51:38;9.25;;;5.60;;
10667;SDS011;5382;42.136;24.796;2022-09-09T04:54:05;11.80;;;6.03;;
10667;SDS011;5382;42.136;24.796;2022-09-09T04:56:33;10.27;;;6.95;;
10667;SDS011;5382;42.136;24.796;2022-09-09T04:59:01;12.10;;;6.60;;
10667;SDS011;5382;42.136;24.796;2022-09-09T05:01:29;13.38;;;5.70;;
10667;SDS011;5382;42.136;24.796;2022-09-09T05:03:57;11.25;;;6.10;;
10667;SDS011;5382;42.136;24.796;2022-09-09T05:06:24;14.05;;;6.05;;
10667;SDS011;5382;42.136;24.796;2022-09-09T05:08:51;15.35;;;6.75;;
10667;SDS011;5382;42.136;24.796;2022-09-09T05:11:19;8.60;;;6.55;;
10667;SDS011;5382;42.136;24.796;2022-09-09T05:13:48;13.65;;;6.55;;
10667;SDS011;5382;42.136;24.796;2022-09-09T05:16:16;15.95;;;7.82;;
10667;SDS011;5382;42.136;24.796;2022-09-09T05:18:45;11.60;;;7.32;;
10667;SDS011;5382;42.136;24.796;2022-09-09T05:21:12;14.55;;;6.97;;
10667;SDS011;5382;42.136;24.796;2022-09-09T05:26:26;10.95;;;7.53;;
10667;SDS011;5382;42.136;24.796;2022-09-09T05:28:54;13.88;;;8.30;;
10667;SDS011;5382;42.136;24.796;2022-09-09T05:31:22;14.48;;;9.10;;
10667;SDS011;5382;42.136;24.796;2022-09-09T05:33:52;13.98;;;9.73;;
10667;SDS011;5382;42.136;24.796;2022-09-09T05:36:19;12.95;;;9.98;;
10667;SDS011;5382;42.136;24.796;2022-09-09T05:38:48;14.23;;;9.27;;
10667;SDS011;5382;42.136;24.796;2022-09-09T05:41:16;11.30;;;9.23;;
10667;SDS011;5382;42.136;24.796;2022-09-09T05:43:45;15.43;;;10.13;;
10667;SDS011;5382;42.136;24.796;2022-09-09T05:46:14;11.32;;;9.30;;
10667;SDS011;5382;42.136;24.796;2022-09-09T05:48:42;13.43;;;9.45;;
10667;SDS011;5382;42.136;24.796;2022-09-09T05:51:13;16.08;;;10.05;;
10667;SDS011;5382;42.136;24.796;2022-09-09T05:53:42;14.13;;;7.75;;
10667;SDS011;5382;42.136;24.796;2022-09-09T05:56:13;11.13;;;7.28;;
10667;SDS011;5382;42.136;24.796;2022-09-09T05:58:42;8.65;;;6.47;;
10667;SDS011;5382;42.136;24.796;2022-09-09T06:01:12;9.32;;;6.97;;
10667;SDS011;5382;42.136;24.796;2022-09-09T06:03:40;8.07;;;6.90;;
10667;SDS011;5382;42.136;24.796;2022-09-09T06:06:09;7.93;;;6.95;;
10667;SDS011;5382;42.136;24.796;2022-09-09T06:08:39;7.38;;;6.38;;
10667;SDS011;5382;42.136;24.796;2022-09-09T06:11:09;8.30;;;6.47;;
10667;SDS011;5382;42.136;24.796;2022-09-09T06:13:38;7.90;;;6.38;;
10667;SDS011;5382;42.136;24.796;2022-09-09T06:16:05;8.07;;;6.75;;
10667;SDS011;5382;42.136;24.796;2022-09-09T06:18:34;10.73;;;6.80;;
10667;SDS011;5382;42.136;24.796;2022-09-09T06:21:02;11.45;;;6.53;;
10667;SDS011;5382;42.136;24.796;2022-09-09T06:23:31;10.73;;;6.43;;
10667;SDS011;5382;42.136;24.796;2022-09-09T06:26:02;11.25;;;5.88;;
10667;SDS011;5382;42.136;24.796;2022-09-09T06:28:30;9.32;;;6.05;;
10667;SDS011;5382;42.136;24.796;2022-09-09T06:30:58;7.50;;;5.65;;
10667;SDS011;5382;42.136;24.796;2022-09-09T06:33:26;7.22;;;5.15;;
10667;SDS011;5382;42.136;24.796;2022-09-09T06:35:56;7.53;;;5.03;;
10667;SDS011;5382;42.136;24.796;2022-09-09T06:38:23;10.43;;;4.70;;
10667;SDS011;5382;42.136;24.796;2022-09-09T06:40:51;4.82;;;4.28;;
10667;SDS011;5382;42.136;24.796;2022-09-09T06:43:21;4.60;;;4.15;;
10667;SDS011;5382;42.136;24.796;2022-09-09T06:45:54;9.48;;;5.78;;
10667;SDS011;5382;42.136;24.796;2022-09-09T06:48:22;9.80;;;5.75;;
10667;SDS011;5382;42.136;24.796;2022-09-09T06:50:51;6.05;;;5.45;;
10667;SDS011;5382;42.136;24.796;2022-09-09T06:53:19;8.45;;;5.53;;
10667;SDS011;5382;42.136;24.796;2022-09-09T06:55:46;8.18;;;5.55;;
10667;SDS011;5382;42.136;24.796;2022-09-09T06:58:13;6.28;;;5.68;;
10667;SDS011;5382;42.136;24.796;2022-09-09T07:00:41;10.68;;;5.53;;
10667;SDS011;5382;42.136;24.796;2022-09-09T07:03:09;6.40;;;5.70;;
10667;SDS011;5382;42.136;24.796;2022-09-09T07:05:37;6.40;;;5.50;;
10667;SDS011;5382;42.136;24.796;2022-09-09T07:08:04;7.47;;;4.78;;
10667;SDS011;5382;42.136;24.796;2022-09-09T07:10:31;7.78;;;5.68;;
10667;SDS011;5382;42.136;24.796;2022-09-09T07:12:59;8.70;;;5.10;;
10667;SDS011;5382;42.136;24.796;2022-09-09T07:15:27;10.57;;;5.35;;
10667;SDS011;5382;42.136;24.796;2022-09-09T07:17:55;6.65;;;4.90;;
10667;SDS011;5382;42.136;24.796;2022-09-09T07:20:26;8.05;;;5.82;;
10667;SDS011;5382;42.136;24.796;2022-09-09T07:22:54;7.72;;;5.20;;
10667;SDS011;5382;42.136;24.796;2022-09-09T07:25:21;14.43;;;5.57;;
10667;SDS011;5382;42.136;24.796;2022-09-09T07:27:48;7.32;;;5.38;;
10667;SDS011;5382;42.136;24.796;2022-09-09T07:30:15;5.80;;;4.65;;
10667;SDS011;5382;42.136;24.796;2022-09-09T07:32:44;7.57;;;5.10;;
10667;SDS011;5382;42.136;24.796;2022-09-09T07:35:12;8.70;;;5.25;;
10667;SDS011;5382;42.136;24.796;2022-09-09T07:37:39;7.80;;;5.10;;
10667;SDS011;5382;42.136;24.796;2022-09-09T07:40:06;8.15;;;6.00;;
10667;SDS011;5382;42.136;24.796;2022-09-09T07:42:34;8.85;;;5.63;;
10667;SDS011;5382;42.136;24.796;2022-09-09T07:45:01;7.55;;;5.25;;
10667;SDS011;5382;42.136;24.796;2022-09-09T07:47:28;8.18;;;4.82;;
10667;SDS011;5382;42.136;24.796;2022-09-09T07:49:55;7.57;;;5.35;;
10667;SDS011;5382;42.136;24.796;2022-09-09T07:52:25;10.00;;;5.45;;
10667;SDS011;5382;42.136;24.796;2022-09-09T07:54:52;9.88;;;5.40;;
10667;SDS011;5382;42.136;24.796;2022-09-09T07:57:20;24.75;;;6.93;;
10667;SDS011;5382;42.136;24.796;2022-09-09T07:59:48;7.85;;;5.40;;
10667;SDS011;5382;42.136;24.796;2022-09-09T08:02:15;9.05;;;5.60;;
10667;SDS011;5382;42.136;24.796;2022-09-09T08:04:42;8.32;;;4.60;;
10667;SDS011;5382;42.136;24.796;2022-09-09T08:07:09;7.97;;;4.72;;
10667;SDS011;5382;42.136;24.796;2022-09-09T08:09:37;5.82;;;4.57;;
10667;SDS011;5382;42.136;24.796;2022-09-09T08:12:04;5.25;;;4.57;;
10667;SDS011;5382;42.136;24.796;2022-09-09T08:14:34;5.60;;;4.57;;
10667;SDS011;5382;42.136;24.796;2022-09-09T08:17:01;5.40;;;4.72;;
10667;SDS011;5382;42.136;24.796;2022-09-09T08:19:27;7.57;;;4.78;;
10667;SDS011;5382;42.136;24.796;2022-09-09T08:21:55;10.02;;;5.10;;
10667;SDS011;5382;42.136;24.796;2022-09-09T08:24:23;9.13;;;4.82;;
10667;SDS011;5382;42.136;24.796;2022-09-09T08:26:51;6.53;;;4.93;;
10667;SDS011;5382;42.136;24.796;2022-09-09T08:29:18;6.90;;;5.03;;
10667;SDS011;5382;42.136;24.796;2022-09-09T08:31:46;5.35;;;4.63;;
10667;SDS011;5382;42.136;24.796;2022-09-09T08:34:14;7.80;;;4.93;;
10667;SDS011;5382;42.136;24.796;2022-09-09T08:36:43;6.57;;;4.65;;
10667;SDS011;5382;42.136;24.796;2022-09-09T08:39:12;7.75;;;5.05;;
10667;SDS011;5382;42.136;24.796;2022-09-09T08:41:55;9.60;;;4.65;;
10667;SDS011;5382;42.136;24.796;2022-09-09T08:44:34;7.38;;;5.22;;
10667;SDS011;5382;42.136;24.796;2022-09-09T08:47:15;11.20;;;5.57;;
10667;SDS011;5382;42.136;24.796;2022-09-09T08:49:55;8.40;;;5.20;;
10667;SDS011;5382;42.136;24.796;2022-09-09T08:52:36;5.85;;;4.70;;
10667;SDS011;5382;42.136;24.796;2022-09-09T08:55:11;5.72;;;4.90;;
10667;SDS011;5382;42.136;24.796;2022-09-09T08:57:49;7.88;;;5.00;;
10667;SDS011;5382;42.136;24.796;2022-09-09T09:00:19;5.85;;;4.82;;
10667;SDS011;5382;42.136;24.796;2022-09-09T09:02:48;7.68;;;5.03;;
10667;SDS011;5382;42.136;24.796;2022-09-09T09:05:27;7.50;;;4.72;;
10667;SDS011;5382;42.136;24.796;2022-09-09T09:08:00;5.88;;;4.30;;
10667;SDS011;5382;42.136;24.796;2022-09-09T09:10:42;6.78;;;5.03;;
10667;SDS011;5382;42.136;24.796;2022-09-09T09:13:18;5.10;;;4.55;;
10667;SDS011;5382;42.136;24.796;2022-09-09T09:15:48;5.93;;;4.75;;
10667;SDS011;5382;42.136;24.796;2022-09-09T09:18:18;9.70;;;4.97;;
10667;SDS011;5382;42.136;24.796;2022-09-09T09:20:58;9.27;;;5.18;;
10667;SDS011;5382;42.136;24.796;2022-09-09T09:23:38;8.93;;;4.80;;
10667;SDS011;5382;42.136;24.796;2022-09-09T09:26:11;5.97;;;4.88;;
10667;SDS011;5382;42.136;24.796;2022-09-09T09:28:40;7.57;;;5.00;;
10667;SDS011;5382;42.136;24.796;2022-09-09T09:31:09;10.88;;;5.28;;
10667;SDS011;5382;42.136;24.796;2022-09-09T09:33:38;5.80;;;5.10;;
10667;SDS011;5382;42.136;24.796;2022-09-09T09:36:13;7.57;;;4.90;;
10667;SDS011;5382;42.136;24.796;2022-09-09T09:38:51;7.78;;;5.10;;
10667;SDS011;5382;42.136;24.796;2022-09-09T09:41:31;24.33;;;6.63;;
10667;SDS011;5382;42.136;24.796;2022-09-09T09:44:02;5.25;;;4.75;;
10667;SDS011;5382;42.136;24.796;2022-09-09T09:46:31;6.45;;;5.50;;
10667;SDS011;5382;42.136;24.796;2022-09-09T09:48:59;5.32;;;4.88;;
10667;SDS011;5382;42.136;24.796;2022-09-09T09:51:29;6.35;;;5.28;;
10667;SDS011;5382;42.136;24.796;2022-09-09T09:54:03;26.83;;;6.32;;
10667;SDS011;5382;42.136;24.796;2022-09-09T09:56:36;9.07;;;5.97;;
10667;SDS011;5382;42.136;24.796;2022-09-09T09:59:04;6.95;;;5.15;;
10667;SDS011;5382;42.136;24.796;2022-09-09T10:01:32;6.57;;;5.30;;
10667;SDS011;5382;42.136;24.796;2022-09-09T10:04:01;7.95;;;5.57;;
10667;SDS011;5382;42.136;24.796;2022-09-09T10:06:40;5.78;;;5.28;;
10667;SDS011;5382;42.136;24.796;2022-09-09T10:09:18;7.22;;;6.20;;
10667;SDS011;5382;42.136;24.796;2022-09-09T10:11:50;15.73;;;5.65;;
10667;SDS011;5382;42.136;24.796;2022-09-09T10:14:29;7.35;;;6.40;;
10667;SDS011;5382;42.136;24.796;2022-09-09T10:17:06;6.18;;;5.57;;
10667;SDS011;5382;42.136;24.796;2022-09-09T10:19:42;8.77;;;5.57;;
10667;SDS011;5382;42.136;24.796;2022-09-09T10:22:24;7.38;;;5.25;;
10667;SDS011;5382;42.136;24.796;2022-09-09T10:25:05;60.25;;;10.18;;
10667;SDS011;5382;42.136;24.796;2022-09-09T10:27:44;7.32;;;5.22;;
10667;SDS011;5382;42.136;24.796;2022-09-09T10:30:22;5.60;;;4.90;;
10667;SDS011;5382;42.136;24.796;2022-09-09T10:32:54;8.00;;;5.45;;
10667;SDS011;5382;42.136;24.796;2022-09-09T10:35:31;5.35;;;4.75;;
10667;SDS011;5382;42.136;24.796;2022-09-09T10:38:12;7.25;;;4.85;;
10667;SDS011;5382;42.136;24.796;2022-09-09T10:40:43;10.65;;;5.38;;
10667;SDS011;5382;42.136;24.796;2022-09-09T10:43:36;7.70;;;4.60;;
10667;SDS011;5382;42.136;24.796;2022-09-09T10:46:14;6.50;;;5.10;;
10667;SDS011;5382;42.136;24.796;2022-09-09T10:48:54;5.60;;;4.15;;
10667;SDS011;5382;42.136;24.796;2022-09-09T10:51:36;10.00;;;4.63;;
10667;SDS011;5382;42.136;24.796;2022-09-09T10:54:15;5.30;;;4.47;;
10667;SDS011;5382;42.136;24.796;2022-09-09T10:56:58;8.35;;;5.88;;
10667;SDS011;5382;42.136;24.796;2022-09-09T10:59:30;28.75;;;6.32;;
10667;SDS011;5382;42.136;24.796;2022-09-09T11:02:06;5.47;;;4.45;;
10667;SDS011;5382;42.136;24.796;2022-09-09T11:04:42;8.00;;;4.28;;
10667;SDS011;5382;42.136;24.796;2022-09-09T11:07:16;7.28;;;4.25;;
10667;SDS011;5382;42.136;24.796;2022-09-09T11:09:52;5.82;;;3.60;;
10667;SDS011;5382;42.136;24.796;2022-09-09T11:12:25;5.53;;;3.60;;
10667;SDS011;5382;42.136;24.796;2022-09-09T11:14:57;6.55;;;3.63;;
10667;SDS011;5382;42.136;24.796;2022-09-09T11:17:30;4.18;;;3.50;;
10667;SDS011;5382;42.136;24.796;2022-09-09T11:20:06;7.22;;;3.65;;
10667;SDS011;5382;42.136;24.796;2022-09-09T11:22:42;4.97;;;3.38;;
10667;SDS011;5382;42.136;24.796;2022-09-09T11:25:15;8.65;;;4.07;;
10667;SDS011;5382;42.136;24.796;2022-09-09T11:27:50;5.30;;;3.22;;
10667;SDS011;5382;42.136;24.796;2022-09-09T11:30:36;7.15;;;3.88;;
10667;SDS011;5382;42.136;24.796;2022-09-09T11:33:23;5.78;;;3.70;;
10667;SDS011;5382;42.136;24.796;2022-09-09T11:36:03;4.80;;;3.40;;
10667;SDS011;5382;42.136;24.796;2022-09-09T11:38:44;5.47;;;3.40;;
10667;SDS011;5382;42.136;24.796;2022-09-09T11:41:12;5.05;;;3.50;;
10667;SDS011;5382;42.136;24.796;2022-09-09T11:43:43;3.85;;;3.25;;
10667;SDS011;5382;42.136;24.796;2022-09-09T11:46:14;5.97;;;4.13;;
10667;SDS011;5382;42.136;24.796;2022-09-09T11:48:45;4.45;;;3.22;;
10667;SDS011;5382;42.136;24.796;2022-09-09T11:51:25;3.90;;;3.45;;
10667;SDS011;5382;42.136;24.796;2022-09-09T11:53:53;5.82;;;3.90;;
10667;SDS011;5382;42.136;24.796;2022-09-09T11:56:24;7.93;;;3.50;;
10667;SDS011;5382;42.136;24.796;2022-09-09T11:58:57;5.40;;;3.55;;
10667;SDS011;5382;42.136;24.796;2022-09-09T12:01:30;6.68;;;3.53;;
10667;SDS011;5382;42.136;24.796;2022-09-09T12:06:58;5.35;;;3.90;;
10667;SDS011;5382;42.136;24.796;2022-09-09T12:09:42;3.97;;;3.50;;
10667;SDS011;5382;42.136;24.796;2022-09-09T12:12:23;7.75;;;3.35;;
10667;SDS011;5382;42.136;24.796;2022-09-09T12:14:56;12.02;;;3.70;;
10667;SDS011;5382;42.136;24.796;2022-09-09T12:17:26;4.55;;;3.50;;
10667;SDS011;5382;42.136;24.796;2022-09-09T12:20:11;4.25;;;3.55;;
10667;SDS011;5382;42.136;24.796;2022-09-09T12:22:43;7.37;;;3.77;;
10667;SDS011;5382;42.136;24.796;2022-09-09T12:25:29;5.13;;;3.83;;
10667;SDS011;5382;42.136;24.796;2022-09-09T12:28:04;6.75;;;4.13;;
10667;SDS011;5382;42.136;24.796;2022-09-09T12:30:37;6.78;;;3.90;;
10667;SDS011;5382;42.136;24.796;2022-09-09T12:33:16;8.20;;;4.18;;
10667;SDS011;5382;42.136;24.796;2022-09-09T12:35:45;5.25;;;3.65;;
10667;SDS011;5382;42.136;24.796;2022-09-09T12:38:19;7.65;;;3.83;;
10667;SDS011;5382;42.136;24.796;2022-09-09T12:40:54;6.68;;;3.60;;
10667;SDS011;5382;42.136;24.796;2022-09-09T12:43:23;9.55;;;3.95;;
10667;SDS011;5382;42.136;24.796;2022-09-09T12:45:52;4.95;;;4.03;;
10667;SDS011;5382;42.136;24.796;2022-09-09T12:48:24;4.53;;;3.90;;
10667;SDS011;5382;42.136;24.796;2022-09-09T12:50:58;8.68;;;3.35;;
10667;SDS011;5382;42.136;24.796;2022-09-09T12:53:26;9.63;;;3.67;;
10667;SDS011;5382;42.136;24.796;2022-09-09T12:55:58;4.43;;;3.70;;
10667;SDS011;5382;42.136;24.796;2022-09-09T12:58:27;5.80;;;3.85;;
10667;SDS011;5382;42.136;24.796;2022-09-09T13:00:59;6.50;;;4.03;;
10667;SDS011;5382;42.136;24.796;2022-09-09T13:03:30;4.60;;;3.90;;
10667;SDS011;5382;42.136;24.796;2022-09-09T13:06:10;8.10;;;3.70;;
10667;SDS011;5382;42.136;24.796;2022-09-09T13:08:38;4.95;;;3.70;;
10667;SDS011;5382;42.136;24.796;2022-09-09T13:11:06;8.75;;;4.10;;
10667;SDS011;5382;42.136;24.796;2022-09-09T13:13:39;4.75;;;3.42;;
10667;SDS011;5382;42.136;24.796;2022-09-09T13:16:22;4.72;;;3.97;;
10667;SDS011;5382;42.136;24.796;2022-09-09T13:18:55;5.10;;;4.20;;
10667;SDS011;5382;42.136;24.796;2022-09-09T13:21:32;5.95;;;3.67;;
10667;SDS011;5382;42.136;24.796;2022-09-09T13:24:00;5.75;;;3.88;;
10667;SDS011;5382;42.136;24.796;2022-09-09T13:26:28;6.53;;;4.07;;
10667;SDS011;5382;42.136;24.796;2022-09-09T13:28:55;9.10;;;4.03;;
10667;SDS011;5382;42.136;24.796;2022-09-09T13:31:36;18.02;;;4.97;;
10667;SDS011;5382;42.136;24.796;2022-09-09T13:34:10;5.95;;;3.83;;
10667;SDS011;5382;42.136;24.796;2022-09-09T13:36:41;5.47;;;4.55;;
10667;SDS011;5382;42.136;24.796;2022-09-09T13:39:15;9.55;;;4.03;;
10667;SDS011;5382;42.136;24.796;2022-09-09T13:41:44;7.05;;;4.05;;
10667;SDS011;5382;42.136;24.796;2022-09-09T13:44:17;4.88;;;3.83;;
10667;SDS011;5382;42.136;24.796;2022-09-09T13:46:58;5.82;;;4.25;;
10667;SDS011;5382;42.136;24.796;2022-09-09T13:49:27;5.15;;;4.05;;
10667;SDS011;5382;42.136;24.796;2022-09-09T13:52:04;10.13;;;4.20;;
10667;SDS011;5382;42.136;24.796;2022-09-09T13:54:35;4.57;;;4.15;;
10667;SDS011;5382;42.136;24.796;2022-09-09T13:57:02;9.45;;;4.85;;
10667;SDS011;5382;42.136;24.796;2022-09-09T13:59:29;8.43;;;4.10;;
10667;SDS011;5382;42.136;24.796;2022-09-09T14:01:57;6.65;;;4.43;;
10667;SDS011;5382;42.136;24.796;2022-09-09T14:04:24;6.25;;;4.10;;
10667;SDS011;5382;42.136;24.796;2022-09-09T14:06:53;6.07;;;4.10;;
10667;SDS011;5382;42.136;24.796;2022-09-09T14:09:23;7.25;;;3.70;;
10667;SDS011;5382;42.136;24.796;2022-09-09T14:11:50;5.82;;;4.15;;
10667;SDS011;5382;42.136;24.796;2022-09-09T14:14:17;4.47;;;4.13;;
10667;SDS011;5382;42.136;24.796;2022-09-09T14:16:45;9.18;;;4.55;;
10667;SDS011;5382;42.136;24.796;2022-09-09T14:19:12;8.52;;;4.53;;
10667;SDS011;5382;42.136;24.796;2022-09-09T14:21:39;6.07;;;4.28;;
10667;SDS011;5382;42.136;24.796;2022-09-09T14:24:06;8.93;;;4.25;;
10667;SDS011;5382;42.136;24.796;2022-09-09T14:26:34;7.88;;;4.65;;
10667;SDS011;5382;42.136;24.796;2022-09-09T14:29:01;4.88;;;4.35;;
10667;SDS011;5382;42.136;24.796;2022-09-09T14:31:28;6.32;;;4.88;;
10667;SDS011;5382;42.136;24.796;2022-09-09T14:33:55;7.38;;;4.68;;
10667;SDS011;5382;42.136;24.796;2022-09-09T14:36:22;10.05;;;5.10;;
10667;SDS011;5382;42.136;24.796;2022-09-09T14:38:49;9.00;;;4.70;;
10667;SDS011;5382;42.136;24.796;2022-09-09T14:41:18;5.25;;;4.63;;
10667;SDS011;5382;42.136;24.796;2022-09-09T14:43:49;6.28;;;5.10;;
10667;SDS011;5382;42.136;24.796;2022-09-09T14:46:17;6.88;;;5.68;;
10667;SDS011;5382;42.136;24.796;2022-09-09T14:48:45;9.45;;;5.57;;
10667;SDS011;5382;42.136;24.796;2022-09-09T14:51:14;7.05;;;5.15;;
10667;SDS011;5382;42.136;24.796;2022-09-09T14:53:42;11.23;;;5.00;;
10667;SDS011;5382;42.136;24.796;2022-09-09T14:56:11;8.00;;;5.50;;
10667;SDS011;5382;42.136;24.796;2022-09-09T14:58:39;9.60;;;5.55;;
10667;SDS011;5382;42.136;24.796;2022-09-09T15:01:07;7.80;;;5.78;;
10667;SDS011;5382;42.136;24.796;2022-09-09T15:03:36;8.57;;;5.30;;
10667;SDS011;5382;42.136;24.796;2022-09-09T15:06:07;7.22;;;5.00;;
10667;SDS011;5382;42.136;24.796;2022-09-09T15:08:34;10.18;;;5.63;;
10667;SDS011;5382;42.136;24.796;2022-09-09T15:11:02;5.93;;;4.88;;
10667;SDS011;5382;42.136;24.796;2022-09-09T15:13:30;6.60;;;5.50;;